Amasa, Michigan
Current Conditions -  °F | °C
As of 5:08 PM on Sunday 21 Dec 2014 (Local Time) from KIMT Reporting Station
Light Snow Light Snow  
Wind Chill: -5°   Ceiling: 500
Heat Index:   Visibility: 2.5mi
Dew Point: -1°   Wind: 10mph
Humidity: 92%   Direction: 150°SSE
Pressure: 29.94"   Gusts: NA
Location:  46.23°N, 88.45°W
Report Text: KIMT 212308Z AUTO 15009KT 2 1/2SM -SN BR OVC005 00/M01 A2994 RMK AO2 P0000 T00001011
Loading
Personal Weather Stations






























Interactive Weather Map New forecast layout! Learn more

10-Day Weather Forecast

Advertisements
Track Severe Weather on mobile